createdAt,value
2019-02-04T00:01:13.941Z,19.63
2019-02-04T00:03:45.524Z,20.57
2019-02-04T00:06:19.058Z,20.67
2019-02-04T00:08:46.498Z,19.33
2019-02-04T00:11:19.430Z,20.13
2019-02-04T00:13:46.858Z,18.67
2019-02-04T00:16:14.269Z,18.27
2019-02-04T00:18:41.711Z,17.90
2019-02-04T00:21:11.814Z,18.13
2019-02-04T00:23:41.296Z,17.00
2019-02-04T00:26:06.664Z,18.97
2019-02-04T00:28:34.102Z,18.20
2019-02-04T00:31:01.514Z,17.67
2019-02-04T00:33:28.989Z,18.83
2019-02-04T00:35:56.422Z,16.07
2019-02-04T00:38:23.844Z,18.80
2019-02-04T00:40:51.268Z,18.10
2019-02-04T00:43:18.685Z,17.70
2019-02-04T00:45:46.117Z,18.27
2019-02-04T00:48:13.533Z,17.90
2019-02-04T00:50:40.964Z,19.63
2019-02-04T00:53:08.381Z,19.03
2019-02-04T00:55:35.814Z,19.67
2019-02-04T00:58:03.228Z,19.30
2019-02-04T01:00:30.668Z,19.23
2019-02-04T01:02:58.086Z,20.80
2019-02-04T01:05:25.492Z,21.23
2019-02-04T01:07:52.930Z,18.10
2019-02-04T01:10:26.403Z,18.90
2019-02-04T01:12:53.879Z,18.70
2019-02-04T01:15:21.291Z,18.23
2019-02-04T01:17:48.776Z,20.20
2019-02-04T01:20:31.111Z,20.03
2019-02-04T01:22:58.547Z,29.70
2019-02-04T01:25:26.000Z,37.03
2019-02-04T01:27:53.453Z,30.30
2019-02-04T01:30:21.953Z,22.77
2019-02-04T01:32:49.188Z,23.57
2019-02-04T01:35:16.623Z,20.70
2019-02-04T01:37:44.076Z,22.83
2019-02-04T01:40:11.502Z,20.07
2019-02-04T01:42:38.931Z,24.10
2019-02-04T01:45:06.369Z,22.10
2019-02-04T01:47:33.811Z,22.07
2019-02-04T01:50:01.247Z,18.80
2019-02-04T01:52:28.659Z,21.93
2019-02-04T01:54:56.141Z,16.03
2019-02-04T01:57:23.539Z,16.00
2019-02-04T01:59:50.966Z,15.47
2019-02-04T02:02:18.379Z,14.27
2019-02-04T02:04:45.817Z,13.03
2019-02-04T02:07:13.276Z,14.00
2019-02-04T02:09:40.713Z,14.80
2019-02-04T02:12:11.373Z,14.60
2019-02-04T02:14:38.786Z,14.23
2019-02-04T02:17:06.225Z,15.13
2019-02-04T02:19:33.627Z,15.23
2019-02-04T02:22:01.071Z,13.50
2019-02-04T02:24:31.347Z,13.77
2019-02-04T02:26:58.751Z,14.30
2019-02-04T02:29:28.977Z,13.70
2019-02-04T02:31:56.412Z,12.90
2019-02-04T02:34:41.645Z,12.80
2019-02-04T02:37:28.225Z,11.83
2019-02-04T02:39:58.753Z,12.73
2019-02-04T02:42:28.739Z,12.80
2019-02-04T02:44:56.699Z,11.43
2019-02-04T02:47:24.118Z,11.50
2019-02-04T02:49:51.554Z,11.47
2019-02-04T02:52:18.955Z,11.07
2019-02-04T02:54:46.494Z,11.30
2019-02-04T02:57:13.916Z,10.87
2019-02-04T02:59:41.361Z,11.83
2019-02-04T03:02:08.770Z,10.97
2019-02-04T03:04:39.172Z,10.07
2019-02-04T03:07:06.581Z,10.47
2019-02-04T03:09:34.000Z,11.03
2019-02-04T03:12:01.418Z,10.83
2019-02-04T03:14:30.299Z,10.00
2019-02-04T03:16:56.256Z,10.73
2019-02-04T03:19:23.695Z,10.70
2019-02-04T03:21:53.863Z,9.87
2019-02-04T03:24:21.300Z,10.20
2019-02-04T03:26:48.693Z,9.63
2019-02-04T03:29:16.117Z,8.80
2019-02-04T03:31:49.366Z,9.80
2019-02-04T03:34:17.848Z,9.57
2019-02-04T03:36:45.263Z,9.33
2019-02-04T03:39:12.676Z,9.80
2019-02-04T03:41:40.111Z,8.87
2019-02-04T03:44:07.546Z,9.20
2019-02-04T03:46:39.418Z,9.83
2019-02-04T03:49:05.230Z,9.77
2019-02-04T03:51:32.700Z,9.27
2019-02-04T03:54:00.054Z,8.77
2019-02-04T03:56:31.957Z,9.40
2019-02-04T03:59:00.609Z,9.77
2019-02-04T04:01:30.740Z,8.57
2019-02-04T04:03:58.145Z,9.30
2019-02-04T04:06:25.583Z,9.07
2019-02-04T04:08:52.990Z,8.73
2019-02-04T04:11:31.884Z,8.73
2019-02-04T04:13:59.311Z,9.50
2019-02-04T04:16:26.720Z,8.73
2019-02-04T04:18:54.146Z,8.37
2019-02-04T04:21:32.279Z,8.80
2019-02-04T04:23:49.026Z,9.57
2019-02-04T04:26:16.430Z,9.13
2019-02-04T04:28:43.843Z,9.03
2019-02-04T04:31:11.283Z,9.63
2019-02-04T04:33:44.571Z,9.40
2019-02-04T04:36:12.007Z,9.47
2019-02-04T04:38:48.434Z,10.43
2019-02-04T04:41:15.864Z,8.70
2019-02-04T04:43:43.310Z,9.00
2019-02-04T04:46:10.708Z,8.27
2019-02-04T04:48:38.176Z,8.10
2019-02-04T04:51:05.586Z,8.77
2019-02-04T04:53:33.021Z,8.57
2019-02-04T04:56:00.424Z,9.37
2019-02-04T04:58:27.859Z,9.97
2019-02-04T05:00:55.287Z,9.37
2019-02-04T05:03:22.753Z,8.73
2019-02-04T05:05:50.157Z,8.63
2019-02-04T05:08:17.702Z,8.33
2019-02-04T05:10:45.012Z,8.50
2019-02-04T05:13:12.461Z,9.07
2019-02-04T05:15:39.871Z,8.47
2019-02-04T05:18:07.309Z,8.83
2019-02-04T05:20:37.500Z,9.30
2019-02-04T05:23:04.945Z,9.90
2019-02-04T05:25:32.370Z,9.50
2019-02-04T05:27:59.781Z,9.27
2019-02-04T05:30:27.217Z,8.93
2019-02-04T05:32:54.658Z,9.80
2019-02-04T05:35:22.065Z,9.40
2019-02-04T05:37:49.464Z,9.37
2019-02-04T05:40:38.503Z,9.50
2019-02-04T05:43:05.915Z,8.77
2019-02-04T05:45:33.341Z,9.03
2019-02-04T05:48:00.752Z,8.93
2019-02-04T05:50:28.215Z,8.57
2019-02-04T05:52:55.626Z,8.03
2019-02-04T05:55:23.042Z,7.60
2019-02-04T05:57:53.420Z,8.17
2019-02-04T06:00:23.308Z,8.13
2019-02-04T06:02:50.753Z,7.47
2019-02-04T06:05:18.165Z,7.80
2019-02-04T06:07:45.565Z,7.67
2019-02-04T06:10:13.005Z,7.30
2019-02-04T06:12:40.420Z,7.40
2019-02-04T06:15:13.648Z,7.03
2019-02-04T06:17:41.046Z,7.70
2019-02-04T06:20:08.479Z,7.40
2019-02-04T06:22:35.919Z,7.30
2019-02-04T06:25:03.363Z,7.10
2019-02-04T06:27:34.978Z,7.47
2019-02-04T06:30:02.405Z,6.33
2019-02-04T06:32:29.821Z,6.50
2019-02-04T06:34:57.270Z,7.03
2019-02-04T06:37:24.683Z,7.00
2019-02-04T06:40:01.735Z,7.77
2019-02-04T06:42:28.000Z,6.03
2019-02-04T06:44:59.897Z,7.47
2019-02-04T06:47:25.687Z,6.80
2019-02-04T06:49:53.128Z,7.33
2019-02-04T06:52:20.554Z,7.43
2019-02-04T06:54:48.014Z,6.30
2019-02-04T06:57:15.423Z,7.50
2019-02-04T06:59:42.832Z,7.43
2019-02-04T07:02:11.969Z,8.37
2019-02-04T07:04:39.407Z,7.67
2019-02-04T07:07:06.830Z,7.03
2019-02-04T07:09:34.265Z,7.27
2019-02-04T07:12:01.666Z,8.20
2019-02-04T07:14:29.115Z,8.50
2019-02-04T07:16:56.646Z,7.50
2019-02-04T07:19:24.820Z,8.33
2019-02-04T07:21:51.625Z,7.53
2019-02-04T07:24:19.071Z,7.63
2019-02-04T07:26:46.508Z,8.03
2019-02-04T07:29:13.976Z,7.77
2019-02-04T07:31:41.392Z,8.20
2019-02-04T07:34:08.805Z,8.40
2019-02-04T07:36:36.241Z,9.40
2019-02-04T07:39:03.672Z,7.77
2019-02-04T07:41:31.122Z,8.37
2019-02-04T07:43:58.553Z,8.63
2019-02-04T07:46:25.995Z,8.50
2019-02-04T07:48:53.410Z,8.60
2019-02-04T07:51:20.845Z,8.43
2019-02-04T07:53:48.278Z,8.33
2019-02-04T07:56:15.686Z,9.30
2019-02-04T07:58:43.142Z,8.57
2019-02-04T08:01:10.562Z,8.90
2019-02-04T08:03:37.990Z,8.67
2019-02-04T08:06:05.430Z,9.57
2019-02-04T08:08:32.865Z,9.37
2019-02-04T08:11:00.309Z,9.27
2019-02-04T08:13:27.739Z,9.47
2019-02-04T08:15:55.234Z,10.17
2019-02-04T08:18:22.597Z,10.27
2019-02-04T08:20:50.033Z,10.40
2019-02-04T08:23:17.494Z,11.17
2019-02-04T08:25:44.930Z,12.00
2019-02-04T08:28:12.351Z,11.00
2019-02-04T08:30:39.791Z,11.40
2019-02-04T08:33:07.220Z,11.63
2019-02-04T08:35:34.666Z,10.77
2019-02-04T08:38:02.139Z,11.43
2019-02-04T08:40:29.585Z,11.57
2019-02-04T08:42:57.030Z,11.00
2019-02-04T08:45:24.510Z,11.97
2019-02-04T08:47:51.938Z,11.03
2019-02-04T08:50:19.381Z,11.57
2019-02-04T08:52:46.789Z,11.97
2019-02-04T08:55:14.218Z,11.23
2019-02-04T08:57:41.665Z,11.67
2019-02-04T09:00:11.776Z,10.57
2019-02-04T09:02:39.198Z,11.33
2019-02-04T09:05:06.661Z,11.10
2019-02-04T09:07:34.093Z,11.33
2019-02-04T09:10:01.549Z,10.77
2019-02-04T09:12:28.963Z,10.43
2019-02-04T09:14:56.396Z,10.13
2019-02-04T09:17:23.828Z,9.73
2019-02-04T09:19:51.281Z,9.87
2019-02-04T09:22:18.798Z,9.60
2019-02-04T09:24:46.120Z,9.83
2019-02-04T09:27:13.539Z,9.80
2019-02-04T09:29:40.997Z,9.80
2019-02-04T09:32:08.453Z,10.80
2019-02-04T09:34:35.887Z,9.27
2019-02-04T09:37:03.318Z,9.33
2019-02-04T09:39:30.774Z,9.17
2019-02-04T09:41:58.196Z,9.60
2019-02-04T09:44:25.604Z,9.17
2019-02-04T09:46:53.052Z,8.83
2019-02-04T09:49:20.509Z,9.53
2019-02-04T09:51:47.925Z,8.73
2019-02-04T09:54:15.376Z,9.13
2019-02-04T09:56:42.774Z,9.33
2019-02-04T09:59:10.191Z,9.33
2019-02-04T10:01:37.628Z,8.40
2019-02-04T10:04:05.051Z,9.17
2019-02-04T10:06:32.489Z,9.17
2019-02-04T10:08:59.911Z,9.20
2019-02-04T10:11:27.343Z,9.77
2019-02-04T10:13:54.787Z,9.57
2019-02-04T10:16:22.272Z,8.80
2019-02-04T10:18:49.652Z,9.03
2019-02-04T10:21:17.061Z,9.57
2019-02-04T10:23:44.522Z,8.83
2019-02-04T10:26:11.954Z,9.27
2019-02-04T10:28:39.388Z,9.23
2019-02-04T10:31:06.784Z,8.73
2019-02-04T10:33:34.234Z,8.70
2019-02-04T10:36:01.765Z,8.33
2019-02-04T10:38:29.133Z,8.50
2019-02-04T10:40:56.499Z,8.93
2019-02-04T10:43:23.921Z,8.83
2019-02-04T10:45:51.421Z,8.87
2019-02-04T10:48:18.821Z,8.93
2019-02-04T10:50:47.252Z,9.30
2019-02-04T10:53:13.760Z,8.60
2019-02-04T10:55:41.127Z,8.70
2019-02-04T10:58:08.582Z,8.77
2019-02-04T11:00:36.019Z,9.17
2019-02-04T11:03:03.444Z,8.73
2019-02-04T11:05:33.355Z,8.70
2019-02-04T11:08:00.807Z,9.00
2019-02-04T11:10:34.317Z,8.60
2019-02-04T11:13:01.641Z,9.07
2019-02-04T11:15:29.085Z,9.33
2019-02-04T11:17:56.471Z,9.27
2019-02-04T11:20:23.918Z,9.20
2019-02-04T11:22:51.337Z,8.80
2019-02-04T11:25:18.790Z,9.17
2019-02-04T11:27:46.230Z,8.93
2019-02-04T11:30:22.534Z,9.90
2019-02-04T11:32:49.822Z,9.13
2019-02-04T11:35:17.281Z,10.03
2019-02-04T11:37:44.691Z,8.63
2019-02-04T11:40:12.168Z,9.93
2019-02-04T11:42:39.561Z,8.37
2019-02-04T11:45:06.989Z,8.03
2019-02-04T11:47:34.459Z,8.67
2019-02-04T11:50:01.908Z,7.67
2019-02-04T11:52:29.291Z,8.80
2019-02-04T11:54:56.716Z,8.47
2019-02-04T11:57:24.144Z,8.10
2019-02-04T11:59:51.552Z,8.27
2019-02-04T12:02:18.986Z,8.20
2019-02-04T12:04:46.401Z,8.10
2019-02-04T12:07:13.850Z,7.73
2019-02-04T12:09:41.266Z,7.60
2019-02-04T12:12:08.699Z,7.70
2019-02-04T12:14:36.131Z,7.90
2019-02-04T12:17:03.586Z,7.83
2019-02-04T12:19:31.015Z,7.90
2019-02-04T12:21:58.435Z,7.67
2019-02-04T12:24:25.861Z,7.90
2019-02-04T12:26:53.271Z,8.20
2019-02-04T12:29:20.696Z,7.90
2019-02-04T12:31:48.128Z,7.53
2019-02-04T12:34:15.547Z,6.80
2019-02-04T12:36:42.948Z,7.43
2019-02-04T12:39:10.363Z,7.87
2019-02-04T12:41:37.792Z,7.20
2019-02-04T12:44:05.197Z,7.13
2019-02-04T12:46:32.603Z,7.27
2019-02-04T12:49:00.048Z,7.10
2019-02-04T12:51:33.635Z,6.93
2019-02-04T12:53:54.863Z,6.57
2019-02-04T12:56:22.279Z,7.07
2019-02-04T12:58:55.642Z,7.20
2019-02-04T13:01:17.107Z,7.27
2019-02-04T13:03:44.533Z,6.50
2019-02-04T13:06:11.944Z,6.70
2019-02-04T13:08:39.388Z,6.30
2019-02-04T13:11:06.811Z,6.93
2019-02-04T13:13:34.243Z,6.50
2019-02-04T13:16:01.680Z,6.53
2019-02-04T13:18:29.098Z,7.17
2019-02-04T13:20:56.529Z,7.80
2019-02-04T13:23:23.934Z,6.83
2019-02-04T13:25:51.385Z,6.90
2019-02-04T13:28:18.801Z,6.23
2019-02-04T13:30:46.212Z,6.10
2019-02-04T13:33:13.643Z,6.43
2019-02-04T13:35:41.065Z,6.10
2019-02-04T13:38:08.477Z,6.47
2019-02-04T13:40:35.906Z,6.10
2019-02-04T13:43:03.321Z,6.20
2019-02-04T13:45:30.754Z,6.30
2019-02-04T13:47:58.188Z,6.20
2019-02-04T13:50:25.591Z,5.73
2019-02-04T13:52:53.010Z,6.20
2019-02-04T13:55:23.278Z,6.63
2019-02-04T13:57:50.675Z,5.90
2019-02-04T14:00:18.089Z,6.50
2019-02-04T14:02:45.539Z,5.87
2019-02-04T14:05:12.954Z,6.27
2019-02-04T14:07:40.373Z,6.37
2019-02-04T14:10:19.890Z,5.93
2019-02-04T14:12:47.336Z,5.60
2019-02-04T14:15:14.801Z,6.00
2019-02-04T14:17:42.172Z,6.53
2019-02-04T14:20:09.602Z,5.87
2019-02-04T14:22:37.004Z,6.10
2019-02-04T14:25:04.456Z,6.27
2019-02-04T14:27:31.873Z,6.10
2019-02-04T14:29:59.320Z,5.50
2019-02-04T14:32:26.719Z,6.40
2019-02-04T14:34:54.679Z,6.00
2019-02-04T14:37:21.584Z,6.30
2019-02-04T14:39:49.004Z,6.63
2019-02-04T14:42:16.416Z,6.53
2019-02-04T14:44:43.859Z,6.80
2019-02-04T14:47:14.182Z,6.27
2019-02-04T14:50:05.704Z,6.13
2019-02-04T14:52:35.628Z,5.83
2019-02-04T14:55:15.143Z,6.67
2019-02-04T14:57:54.632Z,6.40
2019-02-04T15:00:55.175Z,6.90
2019-02-04T15:03:22.666Z,7.03
2019-02-04T15:05:52.635Z,6.70
2019-02-04T15:08:33.335Z,7.50
2019-02-04T15:10:59.007Z,6.17
2019-02-04T15:13:53.738Z,6.23
2019-02-04T15:16:26.687Z,11.87
2019-02-04T15:19:15.761Z,6.60
2019-02-04T15:21:52.188Z,6.13
2019-02-04T15:24:25.055Z,6.07
2019-02-04T15:27:01.149Z,5.43
2019-02-04T15:29:31.295Z,6.20
2019-02-04T15:32:19.738Z,5.80
2019-02-04T15:35:04.169Z,7.27
2019-02-04T15:37:31.775Z,5.83
2019-02-04T15:39:59.226Z,6.13
2019-02-04T15:42:47.411Z,6.73
2019-02-04T15:45:17.749Z,7.37
2019-02-04T15:47:47.986Z,6.77
2019-02-04T15:50:36.145Z,6.03
2019-02-04T15:53:03.570Z,6.20
2019-02-04T15:55:31.042Z,6.63
2019-02-04T15:57:58.460Z,5.90
2019-02-04T16:00:25.864Z,6.63
2019-02-04T16:02:53.314Z,6.80
2019-02-04T16:05:20.744Z,6.37
2019-02-04T16:07:48.145Z,7.00
2019-02-04T16:10:15.552Z,6.83
2019-02-04T16:12:42.977Z,6.33
2019-02-04T16:15:10.394Z,6.47
2019-02-04T16:17:37.941Z,6.23
2019-02-04T16:20:05.307Z,6.13
2019-02-04T16:22:32.743Z,6.53
2019-02-04T16:25:00.310Z,6.83
2019-02-04T16:27:28.000Z,5.73
2019-02-04T16:29:55.402Z,5.57
2019-02-04T16:32:22.810Z,6.23
2019-02-04T16:34:50.266Z,4.90
2019-02-04T16:37:17.823Z,5.03
2019-02-04T16:39:45.117Z,5.30
2019-02-04T16:42:12.542Z,4.50
2019-02-04T16:44:39.945Z,5.37
2019-02-04T16:47:07.375Z,5.20
2019-02-04T16:49:34.782Z,5.27
2019-02-04T16:52:02.200Z,5.67
2019-02-04T16:54:29.605Z,4.73
2019-02-04T16:56:57.037Z,4.97
2019-02-04T16:59:24.475Z,4.50
2019-02-04T17:01:51.861Z,5.23
2019-02-04T17:04:19.273Z,4.97
2019-02-04T17:06:46.709Z,7.27
2019-02-04T17:09:14.145Z,5.40
2019-02-04T17:11:41.542Z,5.17
2019-02-04T17:14:08.986Z,5.07
2019-02-04T17:16:36.396Z,5.20
2019-02-04T17:19:03.785Z,4.77
2019-02-04T17:21:31.218Z,4.67
2019-02-04T17:23:58.659Z,5.00
2019-02-04T17:26:26.076Z,4.53
2019-02-04T17:28:53.486Z,4.23
2019-02-04T17:31:20.910Z,4.60
2019-02-04T17:33:48.352Z,4.30
2019-02-04T17:36:15.783Z,4.23
2019-02-04T17:38:43.206Z,4.87
2019-02-04T17:41:10.732Z,5.10
2019-02-04T17:43:38.151Z,5.10
2019-02-04T17:46:05.568Z,5.03
2019-02-04T17:48:33.002Z,5.60
2019-02-04T17:51:00.437Z,5.67
2019-02-04T17:53:34.415Z,5.20
2019-02-04T17:55:55.285Z,5.47
2019-02-04T17:58:22.702Z,5.40
2019-02-04T18:00:50.198Z,5.83
2019-02-04T18:03:17.584Z,5.77
2019-02-04T18:05:44.984Z,5.20
2019-02-04T18:08:12.416Z,5.43
2019-02-04T18:10:39.844Z,5.70
2019-02-04T18:13:07.301Z,5.87
2019-02-04T18:15:34.743Z,5.57
2019-02-04T18:18:02.125Z,6.10
2019-02-04T18:20:29.558Z,6.00
2019-02-04T18:22:56.954Z,5.57
2019-02-04T18:25:24.391Z,5.70
2019-02-04T18:27:51.805Z,5.73
2019-02-04T18:30:25.224Z,6.70
2019-02-04T18:32:52.677Z,6.17
2019-02-04T18:35:20.102Z,6.70
2019-02-04T18:37:47.523Z,6.27
2019-02-04T18:40:17.883Z,6.03
2019-02-04T18:42:45.276Z,6.60
2019-02-04T18:45:15.242Z,5.93
2019-02-04T18:47:42.739Z,6.00
2019-02-04T18:50:11.160Z,5.97
2019-02-04T18:52:38.588Z,6.07
2019-02-04T18:55:06.091Z,6.17
2019-02-04T18:57:33.514Z,6.17
2019-02-04T19:00:00.928Z,6.63
2019-02-04T19:02:28.354Z,6.20
2019-02-04T19:04:55.801Z,5.47
2019-02-04T19:07:23.313Z,6.07
2019-02-04T19:09:50.821Z,5.40
2019-02-04T19:12:18.248Z,5.10
2019-02-04T19:14:45.686Z,4.57
2019-02-04T19:17:13.157Z,6.70
2019-02-04T19:19:40.560Z,5.17
2019-02-04T19:22:08.006Z,5.40
2019-02-04T19:24:35.446Z,5.13
2019-02-04T19:27:02.921Z,5.47
2019-02-04T19:29:30.330Z,5.20
2019-02-04T19:31:57.769Z,5.17
2019-02-04T19:34:25.194Z,4.50
2019-02-04T19:36:52.638Z,5.30
2019-02-04T19:39:20.063Z,4.97
2019-02-04T19:41:47.600Z,5.77
2019-02-04T19:44:15.011Z,5.67
2019-02-04T19:46:42.471Z,5.07
2019-02-04T19:49:10.223Z,5.27
2019-02-04T19:51:37.698Z,4.83
2019-02-04T19:54:05.150Z,5.20
2019-02-04T19:56:32.622Z,5.07
2019-02-04T19:59:00.133Z,5.03
2019-02-04T20:01:27.526Z,4.90
2019-02-04T20:03:55.084Z,4.40
2019-02-04T20:06:22.455Z,4.20
2019-02-04T20:08:49.860Z,4.80
2019-02-04T20:11:17.314Z,5.23
2019-02-04T20:13:44.714Z,4.87
2019-02-04T20:16:12.127Z,5.27
2019-02-04T20:18:39.562Z,4.80
2019-02-04T20:21:06.990Z,4.37
2019-02-04T20:23:34.434Z,5.07
2019-02-04T20:26:01.853Z,5.13
2019-02-04T20:28:29.275Z,5.93
2019-02-04T20:30:56.714Z,5.23
2019-02-04T20:33:24.132Z,5.57
2019-02-04T20:35:51.557Z,5.37
2019-02-04T20:38:18.983Z,5.40
2019-02-04T20:40:46.393Z,5.77
2019-02-04T20:43:13.881Z,5.10
2019-02-04T20:45:41.289Z,5.83
2019-02-04T20:48:08.760Z,5.30
2019-02-04T20:50:36.152Z,5.33
2019-02-04T20:53:03.580Z,6.10
2019-02-04T20:55:31.022Z,5.63
2019-02-04T20:57:58.466Z,5.80
2019-02-04T21:00:31.320Z,5.50
2019-02-04T21:03:01.712Z,5.60
2019-02-04T21:05:26.200Z,5.57
2019-02-04T21:07:53.692Z,5.30
2019-02-04T21:10:21.137Z,5.40
2019-02-04T21:12:48.601Z,5.50
2019-02-04T21:15:16.026Z,5.80
2019-02-04T21:17:43.529Z,6.70
2019-02-04T21:20:13.794Z,5.63
2019-02-04T21:22:41.214Z,5.57
2019-02-04T21:25:08.638Z,6.20
2019-02-04T21:27:36.076Z,6.77
2019-02-04T21:30:03.624Z,6.00
2019-02-04T21:32:31.047Z,6.00
2019-02-04T21:34:58.458Z,5.83
2019-02-04T21:37:25.884Z,5.80
2019-02-04T21:39:53.310Z,6.00
2019-02-04T21:42:20.752Z,5.30
2019-02-04T21:44:50.167Z,5.77
2019-02-04T21:47:15.653Z,5.53
2019-02-04T21:49:43.074Z,5.63
2019-02-04T21:52:10.477Z,5.60
2019-02-04T21:54:37.913Z,6.00
2019-02-04T21:57:05.348Z,5.53
2019-02-04T21:59:32.763Z,6.63
2019-02-04T22:02:00.211Z,5.20
2019-02-04T22:04:27.650Z,5.23
2019-02-04T22:06:55.072Z,5.87
2019-02-04T22:09:22.508Z,5.87
2019-02-04T22:11:49.913Z,5.80
2019-02-04T22:14:17.358Z,5.47
2019-02-04T22:16:44.762Z,5.97
2019-02-04T22:19:12.190Z,5.93
2019-02-04T22:21:39.608Z,5.77
2019-02-04T22:24:07.177Z,5.07
2019-02-04T22:26:34.561Z,5.77
2019-02-04T22:29:02.045Z,5.53
2019-02-04T22:31:29.450Z,6.20
2019-02-04T22:33:56.901Z,5.63
2019-02-04T22:36:24.339Z,5.93
2019-02-04T22:38:51.812Z,6.10
2019-02-04T22:41:19.264Z,6.10
2019-02-04T22:43:46.676Z,5.67
2019-02-04T22:46:14.112Z,5.90
2019-02-04T22:48:41.565Z,5.90
2019-02-04T22:51:08.987Z,5.87
2019-02-04T22:53:36.407Z,5.30
2019-02-04T22:56:03.822Z,5.50
2019-02-04T22:58:31.261Z,6.07
2019-02-04T23:00:58.724Z,5.53
2019-02-04T23:03:26.097Z,6.17
2019-02-04T23:05:53.520Z,6.00
2019-02-04T23:08:20.946Z,5.70
2019-02-04T23:10:48.350Z,6.40
2019-02-04T23:13:15.767Z,5.70
2019-02-04T23:15:43.164Z,5.63
2019-02-04T23:18:10.640Z,6.20
2019-02-04T23:20:38.060Z,6.30
2019-02-04T23:23:05.494Z,5.20
2019-02-04T23:25:43.120Z,6.37
2019-02-04T23:28:00.351Z,6.23
2019-02-04T23:30:27.799Z,6.17
2019-02-04T23:32:55.319Z,5.87
2019-02-04T23:35:23.920Z,5.93
2019-02-04T23:37:50.041Z,6.10
2019-02-04T23:40:17.470Z,6.07
2019-02-04T23:42:44.878Z,6.47
2019-02-04T23:45:12.279Z,6.17
2019-02-04T23:47:39.708Z,6.10
2019-02-04T23:50:12.921Z,6.33
2019-02-04T23:52:40.347Z,6.23
2019-02-04T23:55:07.767Z,6.63
2019-02-04T23:57:35.202Z,7.37
